createdAt,value
2018-08-30T00:05:11.114Z,16.50
2018-08-30T00:10:40.344Z,16.40
2018-08-30T00:16:09.595Z,16.40
2018-08-30T00:21:38.870Z,16.40
2018-08-30T00:27:09.028Z,16.40
2018-08-30T00:32:38.328Z,16.30
2018-08-30T00:38:07.655Z,16.40
2018-08-30T00:43:37.248Z,16.40
2018-08-30T00:49:06.566Z,16.40
2018-08-30T00:54:36.079Z,16.40
2018-08-30T01:00:06.013Z,16.40
2018-08-30T01:05:35.792Z,16.40
2018-08-30T01:11:06.055Z,16.40
2018-08-30T01:16:36.113Z,16.40
2018-08-30T01:22:05.396Z,16.50
2018-08-30T01:27:34.668Z,16.50
2018-08-30T01:33:03.902Z,16.60
2018-08-30T01:38:33.265Z,16.60
2018-08-30T01:44:02.766Z,16.60
2018-08-30T01:49:31.948Z,16.70
2018-08-30T01:55:01.349Z,16.80
2018-08-30T02:00:30.643Z,16.80
2018-08-30T02:05:59.868Z,16.80
2018-08-30T02:11:29.568Z,16.80
2018-08-30T02:16:58.836Z,16.80
2018-08-30T02:22:28.204Z,16.80
2018-08-30T02:27:57.431Z,16.80
2018-08-30T02:33:26.679Z,16.80
2018-08-30T02:38:55.921Z,16.80
2018-08-30T02:44:25.107Z,16.80
2018-08-30T02:49:54.333Z,16.80
2018-08-30T02:55:23.596Z,16.80
2018-08-30T03:00:52.835Z,16.80
2018-08-30T03:06:21.992Z,16.90
2018-08-30T03:11:51.160Z,16.90
2018-08-30T03:17:20.374Z,17.00
2018-08-30T03:22:49.635Z,17.00
2018-08-30T03:28:18.920Z,17.00
2018-08-30T03:33:48.262Z,17.00
2018-08-30T03:39:17.468Z,17.00
2018-08-30T03:44:46.836Z,17.00
2018-08-30T03:50:16.128Z,17.00
2018-08-30T03:55:45.382Z,17.00
2018-08-30T04:01:14.597Z,17.00
2018-08-30T04:06:43.840Z,17.00
2018-08-30T04:12:13.139Z,16.90
2018-08-30T04:17:42.468Z,16.90
2018-08-30T04:23:11.719Z,16.90
2018-08-30T04:28:41.166Z,16.90
2018-08-30T04:34:10.464Z,16.90
2018-08-30T04:39:39.974Z,16.80
2018-08-30T04:45:09.536Z,16.80
2018-08-30T04:50:39.052Z,16.70
2018-08-30T04:56:08.540Z,16.70
2018-08-30T05:01:37.860Z,16.60
2018-08-30T05:07:07.327Z,16.60
2018-08-30T05:12:36.683Z,16.60
2018-08-30T05:18:06.079Z,16.60
2018-08-30T05:23:35.792Z,16.60
2018-08-30T05:29:05.185Z,16.50
2018-08-30T05:34:34.611Z,16.50
2018-08-30T05:40:04.947Z,16.40
2018-08-30T05:45:34.372Z,16.40
2018-08-30T05:51:03.647Z,16.30
2018-08-30T05:56:32.856Z,16.30
2018-08-30T06:02:02.336Z,16.20
2018-08-30T06:07:31.657Z,16.20
2018-08-30T06:13:00.920Z,16.20
2018-08-30T06:18:30.199Z,16.20
2018-08-30T06:23:59.424Z,16.20
2018-08-30T06:29:28.647Z,16.20
2018-08-30T06:34:58.025Z,16.20
2018-08-30T06:40:27.275Z,16.20
2018-08-30T06:45:56.512Z,16.20
2018-08-30T06:51:25.788Z,16.20
2018-08-30T06:56:55.031Z,16.20
2018-08-30T07:02:24.301Z,16.20
2018-08-30T07:07:53.660Z,16.20
2018-08-30T07:13:22.862Z,16.10
2018-08-30T07:18:52.165Z,16.10
2018-08-30T07:24:21.484Z,16.10
2018-08-30T07:29:50.740Z,15.90
2018-08-30T07:35:20.055Z,15.90
2018-08-30T07:40:49.350Z,15.80
2018-08-30T07:46:18.595Z,15.80
2018-08-30T07:51:48.008Z,15.80
2018-08-30T07:57:17.252Z,15.80
2018-08-30T08:02:47.390Z,15.90
2018-08-30T08:08:16.847Z,15.90
2018-08-30T08:13:47.362Z,16.00
2018-08-30T08:19:17.159Z,16.10
2018-08-30T08:24:46.431Z,16.10
2018-08-30T08:30:15.642Z,16.20
2018-08-30T08:35:44.951Z,16.30
2018-08-30T08:41:14.184Z,16.40
2018-08-30T08:46:43.460Z,16.40
2018-08-30T08:52:12.721Z,16.40
2018-08-30T08:57:42.011Z,16.40
2018-08-30T09:03:11.356Z,16.50
2018-08-30T09:08:40.617Z,16.50
2018-08-30T09:14:10.023Z,16.50
2018-08-30T09:19:39.431Z,16.60
2018-08-30T09:25:08.910Z,16.60
2018-08-30T09:30:38.323Z,16.70
2018-08-30T09:36:07.687Z,16.70
2018-08-30T09:41:37.092Z,16.70
2018-08-30T09:47:07.284Z,16.70
2018-08-30T09:52:36.640Z,16.70
2018-08-30T09:58:06.149Z,16.80
2018-08-30T10:03:35.509Z,17.00
2018-08-30T10:09:07.140Z,17.20
2018-08-30T10:14:36.477Z,17.30
2018-08-30T10:20:05.871Z,17.50
2018-08-30T10:25:35.228Z,17.70
2018-08-30T10:31:04.788Z,17.90
2018-08-30T10:36:34.113Z,17.90
2018-08-30T10:42:04.451Z,17.90
2018-08-30T10:47:33.720Z,17.90
2018-08-30T10:53:03.026Z,18.10
2018-08-30T10:58:32.289Z,18.20
2018-08-30T11:04:01.751Z,18.30
2018-08-30T11:09:31.017Z,18.30
2018-08-30T11:15:00.366Z,18.30
2018-08-30T11:20:29.675Z,18.20
2018-08-30T11:25:58.942Z,18.10
2018-08-30T11:31:28.154Z,18.00
2018-08-30T11:36:57.347Z,17.90
2018-08-30T11:42:26.757Z,17.90
2018-08-30T11:47:56.320Z,17.90
2018-08-30T11:53:25.643Z,18.00
2018-08-30T11:58:54.894Z,18.10
2018-08-30T12:04:24.392Z,18.10
2018-08-30T12:09:53.640Z,18.20
2018-08-30T12:15:23.418Z,18.20
2018-08-30T12:20:52.646Z,18.30
2018-08-30T12:26:21.949Z,18.30
2018-08-30T12:31:51.249Z,18.30
2018-08-30T12:37:20.384Z,18.20
2018-08-30T12:42:49.833Z,18.20
2018-08-30T12:48:19.080Z,18.20
2018-08-30T12:53:48.424Z,18.10
2018-08-30T12:59:18.901Z,18.00
2018-08-30T13:04:48.251Z,18.00
2018-08-30T13:10:17.606Z,17.90
2018-08-30T13:15:46.728Z,17.80
2018-08-30T13:21:16.066Z,17.70
2018-08-30T13:26:45.573Z,17.60
2018-08-30T13:32:15.799Z,17.60
2018-08-30T13:37:46.948Z,17.50
2018-08-30T13:43:16.277Z,17.40
2018-08-30T13:48:45.889Z,17.40
2018-08-30T13:54:15.303Z,17.30
2018-08-30T13:59:44.714Z,17.30
2018-08-30T14:05:14.637Z,17.30
2018-08-30T14:10:43.971Z,17.20
2018-08-30T14:16:13.321Z,17.20
2018-08-30T14:21:42.699Z,17.20
2018-08-30T14:27:12.127Z,17.30
2018-08-30T14:32:41.417Z,17.30
2018-08-30T14:38:10.828Z,17.40
2018-08-30T14:43:40.115Z,17.40
2018-08-30T14:49:09.534Z,17.50
2018-08-30T14:54:39.073Z,17.60
2018-08-30T15:00:09.649Z,17.60
2018-08-30T15:05:41.086Z,17.60
2018-08-30T15:11:10.578Z,17.60
2018-08-30T15:16:39.920Z,17.50
2018-08-30T15:22:09.438Z,17.40
2018-08-30T15:27:39.002Z,17.30
2018-08-30T15:33:08.525Z,17.30
2018-08-30T15:38:37.974Z,17.30
2018-08-30T15:44:07.624Z,17.30
2018-08-30T15:49:37.023Z,17.30
2018-08-30T15:55:06.605Z,17.30
2018-08-30T16:00:36.390Z,17.30
2018-08-30T16:06:06.167Z,17.30
2018-08-30T16:11:35.685Z,17.30
2018-08-30T16:17:05.111Z,17.20
2018-08-30T16:23:43.172Z,17.20
2018-08-30T16:29:12.876Z,17.20
2018-08-30T16:34:44.115Z,17.10
2018-08-30T16:40:14.055Z,17.10
2018-08-30T16:45:43.887Z,17.10
2018-08-30T16:51:15.172Z,17.10
2018-08-30T16:56:44.443Z,17.00
2018-08-30T17:02:14.993Z,17.00
2018-08-30T17:07:45.348Z,17.00
2018-08-30T17:13:14.604Z,17.00
2018-08-30T17:18:48.076Z,16.90
2018-08-30T17:24:22.968Z,16.80
2018-08-30T17:29:52.197Z,16.80
2018-08-30T17:35:21.678Z,16.80
2018-08-30T17:40:51.495Z,16.70
2018-08-30T17:46:21.829Z,16.70
2018-08-30T17:51:52.211Z,16.70
2018-08-30T17:57:22.034Z,16.60
2018-08-30T18:02:51.451Z,16.60
2018-08-30T18:08:20.775Z,16.60
2018-08-30T18:13:50.546Z,16.60
2018-08-30T18:19:19.762Z,16.50
2018-08-30T18:24:49.482Z,16.50
2018-08-30T18:30:20.013Z,16.50
2018-08-30T18:35:49.343Z,16.50
2018-08-30T18:41:18.646Z,16.40
2018-08-30T18:46:49.045Z,16.40
2018-08-30T18:52:18.442Z,16.30
2018-08-30T18:57:48.063Z,16.30
2018-08-30T19:03:17.464Z,16.20
2018-08-30T19:08:47.827Z,16.20
2018-08-30T19:14:17.313Z,16.10
2018-08-30T19:19:46.691Z,16.10
2018-08-30T19:25:20.312Z,16.00
2018-08-30T19:30:49.635Z,15.90
2018-08-30T19:36:24.319Z,15.90
2018-08-30T19:41:53.758Z,15.80
2018-08-30T19:47:23.059Z,15.70
2018-08-30T19:52:53.852Z,15.70
2018-08-30T19:58:23.348Z,15.70
2018-08-30T20:03:52.735Z,15.70
2018-08-30T20:09:22.473Z,15.60
2018-08-30T20:14:52.509Z,15.60
2018-08-30T20:20:22.911Z,15.50
2018-08-30T20:25:52.524Z,15.40
2018-08-30T20:31:22.042Z,15.40
2018-08-30T20:36:51.392Z,15.40
2018-08-30T20:42:20.827Z,15.30
2018-08-30T20:47:51.605Z,15.30
2018-08-30T20:53:21.361Z,15.30
2018-08-30T20:58:51.733Z,15.20
2018-08-30T21:04:23.737Z,15.20
2018-08-30T21:09:53.020Z,15.20
2018-08-30T21:15:23.453Z,15.20
2018-08-30T21:20:53.117Z,15.20
2018-08-30T21:26:22.675Z,15.20
2018-08-30T21:31:52.196Z,15.20
2018-08-30T21:37:21.664Z,15.20
2018-08-30T21:42:51.081Z,15.20
2018-08-30T21:48:20.929Z,15.20
2018-08-30T21:53:50.456Z,15.20
2018-08-30T21:59:19.727Z,15.20
2018-08-30T22:04:49.179Z,15.20
2018-08-30T22:10:19.192Z,15.20
2018-08-30T22:15:48.459Z,15.10
2018-08-30T22:21:17.759Z,15.20
2018-08-30T22:26:47.037Z,15.20
2018-08-30T22:32:16.392Z,15.20
2018-08-30T22:37:45.655Z,15.20
2018-08-30T22:43:14.946Z,15.30
2018-08-30T22:48:44.392Z,15.30
2018-08-30T22:54:14.691Z,15.30
2018-08-30T22:59:44.007Z,15.30
2018-08-30T23:05:13.303Z,15.20
2018-08-30T23:10:42.606Z,15.20
2018-08-30T23:16:12.039Z,15.20
2018-08-30T23:21:41.344Z,15.20
2018-08-30T23:27:11.345Z,15.10
2018-08-30T23:32:40.691Z,15.00
2018-08-30T23:38:09.993Z,15.00
2018-08-30T23:43:39.362Z,14.90
2018-08-30T23:49:08.760Z,14.80
2018-08-30T23:54:38.851Z,14.70
